createdAt,value
2022-10-01T00:01:17.733Z,13.61
2022-10-01T00:03:45.062Z,13.62
2022-10-01T00:06:21.596Z,13.63
2022-10-01T00:08:50.812Z,13.61
2022-10-01T00:11:21.397Z,13.56
2022-10-01T00:13:48.670Z,13.51
2022-10-01T00:16:18.749Z,13.45
2022-10-01T00:18:48.221Z,13.46
2022-10-01T00:21:27.073Z,13.44
2022-10-01T00:24:03.201Z,13.45
2022-10-01T00:26:35.058Z,13.43
2022-10-01T00:29:07.822Z,13.42
2022-10-01T00:31:34.907Z,13.44
2022-10-01T00:34:03.374Z,13.47
2022-10-01T00:36:31.772Z,13.46
2022-10-01T00:39:00.657Z,13.49
2022-10-01T00:41:29.676Z,13.50
2022-10-01T00:43:58.871Z,13.49
2022-10-01T00:46:32.368Z,13.49
2022-10-01T00:49:07.148Z,13.45
2022-10-01T00:51:42.883Z,13.44
2022-10-01T00:54:22.681Z,13.44
2022-10-01T00:56:53.260Z,13.44
2022-10-01T00:59:21.057Z,13.48
2022-10-01T01:01:48.756Z,13.46
2022-10-01T01:04:18.425Z,13.46
2022-10-01T01:06:53.820Z,13.49
2022-10-01T01:09:22.985Z,13.52
2022-10-01T01:12:19.142Z,13.52
2022-10-01T01:15:04.990Z,13.49
2022-10-01T01:17:59.254Z,13.49
2022-10-01T01:20:49.935Z,13.50
2022-10-01T01:23:16.635Z,13.51
2022-10-01T01:25:54.324Z,13.53
2022-10-01T01:28:31.626Z,13.54
2022-10-01T01:31:04.906Z,13.59
2022-10-01T01:33:34.388Z,13.62
2022-10-01T01:36:09.659Z,13.62
2022-10-01T01:38:45.353Z,13.66
2022-10-01T01:41:14.546Z,13.67
2022-10-01T01:43:46.107Z,13.71
2022-10-01T01:46:17.744Z,13.74
2022-10-01T01:48:47.624Z,13.72
2022-10-01T01:51:25.155Z,13.72
2022-10-01T01:53:52.191Z,13.71
2022-10-01T01:56:18.964Z,13.73
2022-10-01T01:58:46.341Z,13.74
2022-10-01T02:01:34.417Z,13.70
2022-10-01T02:04:05.391Z,13.70
2022-10-01T02:06:35.297Z,13.68
2022-10-01T02:09:08.765Z,13.66
2022-10-01T02:11:46.854Z,13.68
2022-10-01T02:14:46.784Z,13.67
2022-10-01T02:17:32.469Z,13.67
2022-10-01T02:20:18.607Z,13.68
2022-10-01T02:22:52.828Z,13.66
2022-10-01T02:25:27.070Z,13.64
2022-10-01T02:28:10.156Z,13.65
2022-10-01T02:30:39.524Z,13.64
2022-10-01T02:33:11.066Z,13.67
2022-10-01T02:35:38.970Z,13.69
2022-10-01T02:38:07.313Z,13.64
2022-10-01T02:40:37.766Z,13.66
2022-10-01T02:43:12.533Z,13.62
2022-10-01T02:45:41.700Z,13.67
2022-10-01T02:48:11.428Z,13.65
2022-10-01T02:51:15.919Z,13.64
2022-10-01T02:53:47.446Z,13.63
2022-10-01T02:56:34.899Z,13.63
2022-10-01T02:59:01.750Z,13.66
2022-10-01T03:01:28.658Z,13.66
2022-10-01T03:03:55.410Z,13.71
2022-10-01T03:06:22.479Z,13.70
2022-10-01T03:08:49.343Z,13.71
2022-10-01T03:11:16.334Z,13.70
2022-10-01T03:13:43.795Z,13.70
2022-10-01T03:16:10.589Z,13.74
2022-10-01T03:18:37.482Z,13.74
2022-10-01T03:21:04.319Z,13.75
2022-10-01T03:23:31.005Z,13.75
2022-10-01T03:25:57.768Z,13.76
2022-10-01T03:28:24.536Z,13.78
2022-10-01T03:30:51.220Z,13.75
2022-10-01T03:33:17.961Z,13.75
2022-10-01T03:35:44.636Z,13.75
2022-10-01T03:38:13.381Z,13.70
2022-10-01T03:40:40.145Z,13.68
2022-10-01T03:43:07.216Z,13.67
2022-10-01T03:45:33.925Z,13.65
2022-10-01T03:48:00.897Z,13.63
2022-10-01T03:50:27.606Z,13.64
2022-10-01T03:52:54.296Z,13.63
2022-10-01T03:55:21.143Z,13.66
2022-10-01T03:57:47.890Z,13.62
2022-10-01T04:00:14.685Z,13.55
2022-10-01T04:02:41.559Z,13.52
2022-10-01T04:05:08.924Z,13.49
2022-10-01T04:07:35.894Z,13.48
2022-10-01T04:10:02.524Z,13.48
2022-10-01T04:12:29.197Z,13.47
2022-10-01T04:14:55.906Z,13.43
2022-10-01T04:17:22.628Z,13.44
2022-10-01T04:19:49.284Z,13.42
2022-10-01T04:22:15.923Z,13.39
2022-10-01T04:24:42.606Z,13.40
2022-10-01T04:27:09.673Z,13.42
2022-10-01T04:29:40.055Z,13.44
2022-10-01T04:32:07.473Z,13.44
2022-10-01T04:34:52.533Z,13.46
2022-10-01T04:37:20.145Z,13.41
2022-10-01T04:39:47.815Z,13.45
2022-10-01T04:42:15.262Z,13.44
2022-10-01T04:44:42.073Z,13.41
2022-10-01T04:47:09.007Z,13.43
2022-10-01T04:49:36.153Z,13.44
2022-10-01T04:52:04.028Z,13.43
2022-10-01T04:54:31.025Z,13.41
2022-10-01T04:57:00.517Z,13.36
2022-10-01T04:59:27.317Z,13.39
2022-10-01T05:01:53.997Z,13.34
2022-10-01T05:04:20.742Z,13.33
2022-10-01T05:06:47.474Z,13.32
2022-10-01T05:09:14.326Z,13.33
2022-10-01T05:11:41.029Z,13.34
2022-10-01T05:14:07.674Z,13.37
2022-10-01T05:16:34.433Z,13.39
2022-10-01T05:19:01.082Z,13.40
2022-10-01T05:21:27.859Z,13.43
2022-10-01T05:23:55.029Z,13.48
2022-10-01T05:26:21.868Z,13.49
2022-10-01T05:28:48.897Z,13.54
2022-10-01T05:31:16.015Z,13.53
2022-10-01T05:33:42.667Z,13.55
2022-10-01T05:36:09.549Z,13.53
2022-10-01T05:38:37.400Z,13.53
2022-10-01T05:41:04.869Z,13.52
2022-10-01T05:43:31.995Z,13.51
2022-10-01T05:46:03.792Z,13.61
2022-10-01T05:48:34.621Z,13.61
2022-10-01T05:51:03.154Z,13.61
2022-10-01T05:53:29.944Z,13.56
2022-10-01T05:55:58.718Z,13.53
2022-10-01T05:58:26.201Z,13.54
2022-10-01T06:00:55.071Z,13.55
2022-10-01T06:03:22.076Z,13.54
2022-10-01T06:05:48.808Z,13.53
2022-10-01T06:08:15.962Z,13.52
2022-10-01T06:10:43.698Z,13.52
2022-10-01T06:13:11.475Z,13.58
2022-10-01T06:15:39.137Z,13.61
2022-10-01T06:18:08.249Z,13.62
2022-10-01T06:20:35.969Z,13.64
2022-10-01T06:23:05.842Z,13.64
2022-10-01T06:25:33.143Z,13.66
2022-10-01T06:27:59.944Z,13.67
2022-10-01T06:30:31.964Z,13.70
2022-10-01T06:33:08.410Z,13.71
2022-10-01T06:35:40.213Z,13.75
2022-10-01T06:38:08.062Z,13.77
2022-10-01T06:40:35.137Z,13.85
2022-10-01T06:43:01.855Z,13.91
2022-10-01T06:45:30.722Z,13.97
2022-10-01T06:47:59.774Z,13.99
2022-10-01T06:50:26.510Z,14.01
2022-10-01T06:52:53.358Z,14.05
2022-10-01T06:55:29.029Z,14.10
2022-10-01T06:57:58.488Z,14.08
2022-10-01T07:00:26.997Z,14.10
2022-10-01T07:02:55.621Z,14.14
2022-10-01T07:05:23.389Z,14.18
2022-10-01T07:07:50.662Z,14.23
2022-10-01T07:10:21.017Z,14.26
2022-10-01T07:12:49.071Z,14.30
2022-10-01T07:15:18.148Z,14.33
2022-10-01T07:17:48.432Z,14.35
2022-10-01T07:20:17.807Z,14.43
2022-10-01T07:22:44.986Z,14.49
2022-10-01T07:25:11.759Z,14.56
2022-10-01T07:27:38.571Z,14.57
2022-10-01T07:30:06.809Z,14.60
2022-10-01T07:32:35.479Z,14.64
2022-10-01T07:35:02.345Z,14.67
2022-10-01T07:37:29.308Z,14.64
2022-10-01T07:39:56.064Z,14.61
2022-10-01T07:42:22.734Z,14.63
2022-10-01T07:44:49.360Z,14.61
2022-10-01T07:47:16.067Z,14.61
2022-10-01T07:49:42.743Z,14.66
2022-10-01T07:52:13.124Z,14.67
2022-10-01T07:54:40.401Z,14.64
2022-10-01T07:57:07.101Z,14.64
2022-10-01T07:59:33.841Z,14.66
2022-10-01T08:02:01.060Z,14.64
2022-10-01T08:04:46.347Z,14.69
2022-10-01T08:07:13.149Z,14.73
2022-10-01T08:09:39.820Z,14.80
2022-10-01T08:12:06.570Z,14.84
2022-10-01T08:14:33.309Z,14.92
2022-10-01T08:17:00.035Z,14.98
2022-10-01T08:19:27.108Z,15.04
2022-10-01T08:21:53.785Z,15.11
2022-10-01T08:24:20.448Z,15.15
2022-10-01T08:26:53.385Z,15.31
2022-10-01T08:29:20.472Z,15.37
2022-10-01T08:31:47.419Z,15.59
2022-10-01T08:34:14.724Z,15.65
2022-10-01T08:36:41.344Z,15.68
2022-10-01T08:39:08.116Z,15.66
2022-10-01T08:41:45.020Z,15.76
2022-10-01T08:44:27.933Z,15.65
2022-10-01T08:47:03.756Z,15.74
2022-10-01T08:49:39.583Z,15.78
2022-10-01T08:52:37.053Z,15.66
2022-10-01T08:55:10.793Z,15.69
2022-10-01T08:57:42.195Z,15.71
2022-10-01T09:00:14.820Z,15.85
2022-10-01T09:02:43.860Z,16.12
2022-10-01T09:05:26.089Z,16.28
2022-10-01T09:08:16.455Z,16.29
2022-10-01T09:10:54.367Z,16.42
2022-10-01T09:13:39.867Z,16.50
2022-10-01T09:16:22.071Z,16.62
2022-10-01T09:18:57.786Z,16.98
2022-10-01T09:21:47.326Z,17.17
2022-10-01T09:24:23.085Z,17.25
2022-10-01T09:26:49.840Z,17.22
2022-10-01T09:29:29.053Z,17.05
2022-10-01T09:31:57.248Z,16.71
2022-10-01T09:34:37.645Z,16.68
2022-10-01T09:37:32.635Z,16.63
2022-10-01T09:40:09.386Z,16.63
2022-10-01T09:42:36.050Z,16.58
2022-10-01T09:45:02.754Z,16.56
2022-10-01T09:47:33.348Z,16.49
2022-10-01T09:50:04.667Z,16.50
2022-10-01T09:52:35.141Z,16.57
2022-10-01T09:55:32.772Z,16.79
2022-10-01T09:58:09.652Z,16.87
2022-10-01T10:00:38.844Z,16.86
2022-10-01T10:03:05.932Z,16.93
2022-10-01T10:05:49.539Z,16.89
2022-10-01T10:08:23.546Z,16.80
2022-10-01T10:10:54.397Z,16.88
2022-10-01T10:13:34.705Z,16.97
2022-10-01T10:16:17.527Z,17.00
2022-10-01T10:18:52.024Z,16.91
2022-10-01T10:21:23.341Z,16.89
2022-10-01T10:24:01.136Z,17.01
2022-10-01T10:26:34.289Z,16.85
2022-10-01T10:29:03.115Z,16.79
2022-10-01T10:31:39.947Z,16.69
2022-10-01T10:34:15.653Z,16.69
2022-10-01T10:36:44.294Z,16.67
2022-10-01T10:39:22.296Z,16.78
2022-10-01T10:41:51.498Z,16.95
2022-10-01T10:44:21.404Z,17.40
2022-10-01T10:46:50.107Z,17.64
2022-10-01T10:49:22.244Z,17.80
2022-10-01T10:51:56.764Z,17.88
2022-10-01T10:54:40.858Z,18.07
2022-10-01T10:57:30.067Z,18.33
2022-10-01T11:00:07.907Z,18.49
2022-10-01T11:02:35.234Z,18.75
2022-10-01T11:05:19.119Z,19.03
2022-10-01T11:07:48.464Z,19.41
2022-10-01T11:10:28.299Z,19.51
2022-10-01T11:13:01.087Z,19.52
2022-10-01T11:15:46.811Z,19.35
2022-10-01T11:18:42.893Z,19.15
2022-10-01T11:21:28.550Z,19.24
2022-10-01T11:24:07.469Z,19.26
2022-10-01T11:26:50.615Z,19.11
2022-10-01T11:29:36.049Z,19.13
2022-10-01T11:32:09.455Z,19.30
2022-10-01T11:34:50.582Z,19.24
2022-10-01T11:37:39.490Z,19.32
2022-10-01T11:40:28.566Z,19.37
2022-10-01T11:43:00.182Z,19.32
2022-10-01T11:45:41.902Z,19.28
2022-10-01T11:48:16.674Z,19.27
2022-10-01T11:50:49.684Z,19.34
2022-10-01T11:53:30.795Z,19.54
2022-10-01T11:56:22.585Z,19.54
2022-10-01T11:58:57.309Z,19.57
2022-10-01T12:01:24.301Z,19.74
2022-10-01T12:03:53.936Z,19.76
2022-10-01T12:06:33.003Z,19.92
2022-10-01T12:09:14.178Z,20.12
2022-10-01T12:11:52.739Z,20.13
2022-10-01T12:15:06.958Z,20.01
2022-10-01T12:17:41.228Z,20.04
2022-10-01T12:20:20.998Z,19.96
2022-10-01T12:22:48.666Z,19.75
2022-10-01T12:25:15.504Z,19.68
2022-10-01T12:27:49.706Z,19.49
2022-10-01T12:30:20.930Z,19.23
2022-10-01T12:33:04.870Z,18.95
2022-10-01T12:35:47.378Z,18.65
2022-10-01T12:38:24.130Z,18.40
2022-10-01T12:41:04.618Z,18.21
2022-10-01T12:43:49.639Z,18.12
2022-10-01T12:46:19.222Z,18.14
2022-10-01T12:49:04.574Z,18.31
2022-10-01T12:51:39.148Z,18.38
2022-10-01T12:54:28.789Z,18.57
2022-10-01T12:57:11.538Z,18.93
2022-10-01T12:59:41.199Z,18.70
2022-10-01T13:02:33.090Z,18.61
2022-10-01T13:05:20.102Z,18.65
2022-10-01T13:07:58.121Z,18.51
2022-10-01T13:10:41.911Z,18.57
2022-10-01T13:13:34.735Z,18.56
2022-10-01T13:16:41.031Z,18.62
2022-10-01T13:19:15.457Z,18.68
2022-10-01T13:22:07.913Z,18.66
2022-10-01T13:24:53.512Z,18.69
2022-10-01T13:27:51.580Z,18.76
2022-10-01T13:30:23.248Z,18.73
2022-10-01T13:33:00.896Z,18.67
2022-10-01T13:35:31.587Z,18.68
2022-10-01T13:38:01.881Z,18.72
2022-10-01T13:40:31.654Z,18.64
2022-10-01T13:43:02.389Z,18.68
2022-10-01T13:45:41.557Z,18.66
2022-10-01T13:48:11.184Z,18.60
2022-10-01T13:50:41.804Z,18.62
2022-10-01T13:53:21.784Z,18.66
2022-10-01T13:55:50.605Z,18.67
2022-10-01T13:58:38.336Z,18.50
2022-10-01T14:01:27.324Z,18.43
2022-10-01T14:04:18.657Z,18.40
2022-10-01T14:06:49.048Z,18.26
2022-10-01T14:09:27.765Z,18.24
2022-10-01T14:12:26.765Z,18.03
2022-10-01T14:15:18.046Z,17.95
2022-10-01T14:17:46.612Z,17.98
2022-10-01T14:20:24.099Z,17.83
2022-10-01T14:23:06.995Z,17.80
2022-10-01T14:25:42.993Z,17.68
2022-10-01T14:28:29.746Z,17.42
2022-10-01T14:31:34.770Z,17.29
2022-10-01T14:34:20.199Z,17.19
2022-10-01T14:36:52.320Z,17.11
2022-10-01T14:39:30.044Z,17.12
2022-10-01T14:41:58.084Z,17.08
2022-10-01T14:44:29.030Z,16.91
2022-10-01T14:47:00.060Z,16.87
2022-10-01T14:49:29.680Z,16.82
2022-10-01T14:52:23.004Z,16.88
2022-10-01T14:55:06.814Z,16.82
2022-10-01T14:57:36.399Z,16.72
2022-10-01T15:00:09.834Z,16.82
2022-10-01T15:02:48.939Z,16.77
2022-10-01T15:05:28.247Z,16.75
2022-10-01T15:07:55.143Z,16.73
2022-10-01T15:10:27.020Z,16.76
2022-10-01T15:12:55.199Z,16.72
2022-10-01T15:15:31.261Z,16.69
2022-10-01T15:17:58.427Z,16.68
2022-10-01T15:20:25.416Z,16.59
2022-10-01T15:23:01.093Z,16.52
2022-10-01T15:25:31.222Z,16.46
2022-10-01T15:27:57.922Z,16.42
2022-10-01T15:30:27.497Z,16.42
2022-10-01T15:32:54.560Z,16.34
2022-10-01T15:35:23.554Z,16.28
2022-10-01T15:37:51.757Z,16.23
2022-10-01T15:40:21.217Z,16.20
2022-10-01T15:43:14.685Z,16.16
2022-10-01T15:45:42.479Z,16.13
2022-10-01T15:48:28.263Z,16.08
2022-10-01T15:51:12.909Z,16.16
2022-10-01T15:53:39.753Z,16.22
2022-10-01T15:56:15.378Z,16.08
2022-10-01T15:58:48.551Z,16.11
2022-10-01T16:01:22.077Z,16.11
2022-10-01T16:04:02.535Z,16.18
2022-10-01T16:06:44.686Z,16.19
2022-10-01T16:09:18.210Z,16.13
2022-10-01T16:11:52.117Z,16.01
2022-10-01T16:14:24.665Z,15.93
2022-10-01T16:17:26.368Z,15.87
2022-10-01T16:19:56.868Z,15.83
2022-10-01T16:22:28.027Z,15.83
2022-10-01T16:25:00.961Z,15.78
2022-10-01T16:27:29.647Z,15.82
2022-10-01T16:30:09.623Z,15.88
2022-10-01T16:32:36.478Z,15.74
2022-10-01T16:35:23.119Z,15.73
2022-10-01T16:37:51.794Z,15.65
2022-10-01T16:40:20.938Z,15.68
2022-10-01T16:42:50.614Z,15.64
2022-10-01T16:45:22.609Z,15.52
2022-10-01T16:47:49.384Z,15.57
2022-10-01T16:50:18.327Z,15.51
2022-10-01T16:52:45.258Z,15.45
2022-10-01T16:55:17.987Z,15.42
2022-10-01T16:57:44.954Z,15.46
2022-10-01T17:00:20.577Z,15.41
2022-10-01T17:02:47.492Z,15.32
2022-10-01T17:05:28.322Z,15.18
2022-10-01T17:08:01.038Z,15.21
2022-10-01T17:10:31.797Z,15.23
2022-10-01T17:12:59.692Z,15.17
2022-10-01T17:15:30.405Z,15.19
2022-10-01T17:17:58.281Z,15.17
2022-10-01T17:20:28.431Z,15.11
2022-10-01T17:22:56.457Z,15.07
2022-10-01T17:25:25.730Z,15.17
2022-10-01T17:27:52.728Z,15.30
2022-10-01T17:30:19.442Z,15.37
2022-10-01T17:32:46.623Z,15.46
2022-10-01T17:35:15.385Z,15.32
2022-10-01T17:37:43.014Z,15.29
2022-10-01T17:40:10.855Z,15.23
2022-10-01T17:42:37.542Z,15.17
2022-10-01T17:45:07.460Z,15.09
2022-10-01T17:47:34.007Z,15.09
2022-10-01T17:50:01.026Z,15.01
2022-10-01T17:52:27.683Z,15.00
2022-10-01T17:54:54.519Z,14.95
2022-10-01T17:57:21.381Z,14.93
2022-10-01T17:59:48.027Z,14.96
2022-10-01T18:02:39.763Z,14.83
2022-10-01T18:05:04.089Z,14.84
2022-10-01T18:07:30.703Z,14.85
2022-10-01T18:09:57.540Z,14.86
2022-10-01T18:12:24.358Z,14.89
2022-10-01T18:14:51.021Z,14.81
2022-10-01T18:17:18.107Z,14.78
2022-10-01T18:19:53.732Z,14.78
2022-10-01T18:22:21.327Z,14.75
2022-10-01T18:24:48.152Z,14.74
2022-10-01T18:27:14.992Z,14.73
2022-10-01T18:29:41.721Z,14.72
2022-10-01T18:32:24.927Z,14.75
2022-10-01T18:34:59.066Z,14.88
2022-10-01T18:37:49.285Z,14.76
2022-10-01T18:40:26.831Z,14.74
2022-10-01T18:43:07.227Z,14.67
2022-10-01T18:45:36.796Z,14.71
2022-10-01T18:48:24.869Z,14.77
2022-10-01T18:50:57.572Z,14.75
2022-10-01T18:53:38.008Z,14.81
2022-10-01T18:56:32.090Z,14.88
2022-10-01T18:58:58.904Z,14.96
2022-10-01T19:01:52.272Z,15.08
2022-10-01T19:05:05.429Z,15.07
2022-10-01T19:07:49.833Z,15.07
2022-10-01T19:10:44.400Z,15.01
2022-10-01T19:13:26.451Z,15.01
2022-10-01T19:16:12.802Z,15.00
2022-10-01T19:19:07.188Z,15.03
2022-10-01T19:21:52.755Z,15.06
2022-10-01T19:24:57.861Z,15.09
2022-10-01T19:27:51.112Z,14.99
2022-10-01T19:30:19.856Z,14.80
2022-10-01T19:32:59.340Z,14.69
2022-10-01T19:35:37.724Z,14.55
2022-10-01T19:38:23.291Z,14.50
2022-10-01T19:41:02.630Z,14.44
2022-10-01T19:43:37.061Z,14.63
2022-10-01T19:46:15.262Z,14.63
2022-10-01T19:48:48.548Z,14.60
2022-10-01T19:51:19.754Z,14.60
2022-10-01T19:53:51.399Z,14.62
2022-10-01T19:56:25.988Z,14.58
2022-10-01T19:58:52.850Z,14.56
2022-10-01T20:01:24.124Z,14.50
2022-10-01T20:04:00.969Z,14.49
2022-10-01T20:06:35.727Z,14.50
2022-10-01T20:09:35.301Z,14.49
2022-10-01T20:12:47.726Z,14.40
2022-10-01T20:15:59.600Z,14.41
2022-10-01T20:18:34.005Z,14.42
2022-10-01T20:21:51.766Z,14.37
2022-10-01T20:24:28.964Z,14.38
2022-10-01T20:27:11.607Z,14.29
2022-10-01T20:29:47.547Z,14.28
2022-10-01T20:32:39.061Z,14.15
2022-10-01T20:35:18.612Z,14.10
2022-10-01T20:38:13.233Z,13.97
2022-10-01T20:40:43.148Z,13.95
2022-10-01T20:43:30.689Z,13.91
2022-10-01T20:46:02.614Z,13.93
2022-10-01T20:48:36.755Z,13.90
2022-10-01T20:51:09.647Z,13.94
2022-10-01T20:53:49.246Z,13.88
2022-10-01T20:56:29.668Z,13.65
2022-10-01T20:59:04.018Z,13.72
2022-10-01T21:01:35.298Z,13.81
2022-10-01T21:04:28.197Z,13.67
2022-10-01T21:07:01.993Z,13.77
2022-10-01T21:09:35.464Z,13.88
2022-10-01T21:12:07.224Z,13.69
2022-10-01T21:14:36.421Z,13.66
2022-10-01T21:17:21.844Z,13.63
2022-10-01T21:20:13.201Z,13.56
2022-10-01T21:23:01.533Z,13.56
2022-10-01T21:25:31.090Z,13.60
2022-10-01T21:28:22.045Z,13.49
2022-10-01T21:31:12.451Z,13.34
2022-10-01T21:33:51.968Z,13.21
2022-10-01T21:36:30.834Z,13.23
2022-10-01T21:39:17.738Z,13.31
2022-10-01T21:41:53.734Z,13.32
2022-10-01T21:45:04.932Z,13.37
2022-10-01T21:47:43.707Z,13.24
2022-10-01T21:50:35.389Z,13.39
2022-10-01T21:53:23.375Z,13.41
2022-10-01T21:56:24.747Z,13.41
2022-10-01T21:59:08.278Z,13.26
2022-10-01T22:01:53.405Z,13.26
2022-10-01T22:04:38.388Z,13.27
2022-10-01T22:07:11.234Z,13.23
2022-10-01T22:09:53.598Z,13.30
2022-10-01T22:12:21.556Z,13.34
2022-10-01T22:14:51.424Z,13.34
2022-10-01T22:17:20.387Z,13.33
2022-10-01T22:19:52.393Z,13.20
2022-10-01T22:22:28.501Z,13.16
2022-10-01T22:24:58.607Z,13.12
2022-10-01T22:27:32.192Z,13.07
2022-10-01T22:30:06.662Z,12.95
2022-10-01T22:32:55.909Z,12.85
2022-10-01T22:35:28.436Z,12.99
2022-10-01T22:38:07.200Z,13.04
2022-10-01T22:40:40.421Z,13.07
2022-10-01T22:43:11.182Z,13.08
2022-10-01T22:46:17.932Z,12.92
2022-10-01T22:48:56.035Z,12.80
2022-10-01T22:51:41.418Z,12.71
2022-10-01T22:54:31.910Z,12.73
2022-10-01T22:57:13.502Z,12.78
2022-10-01T22:59:49.239Z,12.91
2022-10-01T23:02:25.548Z,12.85
2022-10-01T23:05:09.394Z,12.78
2022-10-01T23:07:44.279Z,12.69
2022-10-01T23:10:20.732Z,12.68
2022-10-01T23:13:05.312Z,12.63
2022-10-01T23:16:00.310Z,12.60
2022-10-01T23:18:48.848Z,12.55
2022-10-01T23:21:46.883Z,12.57
2022-10-01T23:24:33.854Z,12.64
2022-10-01T23:27:45.432Z,12.60
2022-10-01T23:30:20.242Z,12.54
2022-10-01T23:33:17.147Z,12.50
2022-10-01T23:36:05.703Z,12.47
2022-10-01T23:38:32.401Z,12.44
2022-10-01T23:41:08.563Z,12.42
2022-10-01T23:43:48.301Z,12.42
2022-10-01T23:46:23.795Z,12.47
2022-10-01T23:49:02.053Z,12.52
2022-10-01T23:51:52.163Z,12.55
2022-10-01T23:54:44.232Z,12.47
2022-10-01T23:57:29.182Z,12.37
